Henderson, Maryland
Current Conditions -  °F | °C
As of 3:58 AM on Friday 19 Dec 2014 (Local Time) from KDOV Reporting Station
Overcast Overcast  
Wind Chill: 28°   Ceiling: 11000
Heat Index: 35°   Visibility: 10mi
Dew Point: 26°   Wind: 10mph
Humidity: 69%   Direction: 260°W
Pressure: 30.05"   Gusts: NA
Location:  39.07°N, 75.77°W
Report Text: KDOV 190858Z AUTO 26009KT 10SM SCT035 OVC110 02/M03 A3005 RMK AO2 SLP179 T00181034 50003
Loading
Personal Weather Stations






























Interactive Weather Map New forecast layout! Learn more

10-Day Weather Forecast

Advertisements
Track Severe Weather on mobile